createdAt,value
2018-11-25T00:00:37.604Z,0.00
2018-11-25T00:01:37.627Z,0.00
2018-11-25T00:02:37.649Z,0.00
2018-11-25T00:03:37.681Z,0.00
2018-11-25T00:04:37.694Z,0.00
2018-11-25T00:05:37.717Z,0.00
2018-11-25T00:06:37.744Z,0.00
2018-11-25T00:07:37.768Z,0.00
2018-11-25T00:08:37.787Z,0.00
2018-11-25T00:09:37.808Z,0.00
2018-11-25T00:10:37.834Z,0.00
2018-11-25T00:11:37.857Z,0.00
2018-11-25T00:12:37.877Z,0.00
2018-11-25T00:13:37.901Z,0.00
2018-11-25T00:14:37.931Z,0.00
2018-11-25T00:15:37.949Z,0.00
2018-11-25T00:16:37.969Z,0.00
2018-11-25T00:17:37.993Z,0.00
2018-11-25T00:18:38.015Z,0.00
2018-11-25T00:19:38.044Z,0.00
2018-11-25T00:20:38.064Z,0.00
2018-11-25T00:21:38.092Z,0.00
2018-11-25T00:22:38.107Z,0.00
2018-11-25T00:23:38.131Z,0.00
2018-11-25T00:24:38.159Z,0.00
2018-11-25T00:25:38.177Z,0.00
2018-11-25T00:26:38.202Z,0.00
2018-11-25T00:27:38.224Z,0.00
2018-11-25T00:28:38.248Z,0.00
2018-11-25T00:29:38.275Z,0.00
2018-11-25T00:30:38.293Z,0.00
2018-11-25T00:31:38.316Z,0.00
2018-11-25T00:32:38.339Z,0.00
2018-11-25T00:33:38.367Z,0.00
2018-11-25T00:34:38.387Z,0.00
2018-11-25T00:35:38.410Z,0.00
2018-11-25T00:36:38.431Z,0.00
2018-11-25T00:37:38.456Z,0.00
2018-11-25T00:38:38.486Z,0.00
2018-11-25T00:39:38.505Z,0.00
2018-11-25T00:40:38.525Z,0.00
2018-11-25T00:41:38.554Z,0.00
2018-11-25T00:42:38.575Z,0.00
2018-11-25T00:43:38.597Z,0.00
2018-11-25T00:44:38.621Z,0.00
2018-11-25T00:45:38.642Z,0.00
2018-11-25T00:46:38.665Z,0.00
2018-11-25T00:47:38.691Z,0.00
2018-11-25T00:48:38.710Z,0.00
2018-11-25T00:49:38.737Z,0.00
2018-11-25T00:50:38.759Z,0.00
2018-11-25T00:51:38.781Z,0.00
2018-11-25T00:52:38.805Z,0.00
2018-11-25T00:53:38.827Z,0.00
2018-11-25T00:54:38.852Z,0.00
2018-11-25T00:55:38.875Z,0.00
2018-11-25T00:56:38.897Z,0.00
2018-11-25T00:57:38.921Z,0.00
2018-11-25T00:58:38.953Z,0.00
2018-11-25T00:59:38.971Z,0.00
2018-11-25T01:00:38.992Z,0.00
2018-11-25T01:01:39.015Z,0.00
2018-11-25T01:02:39.041Z,0.00
2018-11-25T01:03:39.062Z,0.00
2018-11-25T01:04:39.083Z,0.00
2018-11-25T01:05:39.109Z,0.00
2018-11-25T01:06:39.132Z,0.00
2018-11-25T01:07:39.157Z,0.00
2018-11-25T01:08:39.178Z,0.00
2018-11-25T01:09:39.202Z,0.00
2018-11-25T01:10:39.224Z,0.00
2018-11-25T01:11:39.254Z,0.00
2018-11-25T01:12:39.271Z,0.00
2018-11-25T01:13:39.296Z,0.00
2018-11-25T01:14:39.318Z,0.00
2018-11-25T01:15:39.342Z,0.00
2018-11-25T01:16:39.365Z,0.00
2018-11-25T01:17:39.396Z,0.00
2018-11-25T01:18:39.413Z,0.00
2018-11-25T01:19:39.441Z,0.00
2018-11-25T01:20:39.462Z,0.00
2018-11-25T01:21:39.482Z,0.00
2018-11-25T01:22:39.507Z,0.00
2018-11-25T01:23:39.531Z,0.00
2018-11-25T01:24:39.556Z,0.00
2018-11-25T01:25:39.582Z,0.00
2018-11-25T01:26:39.599Z,0.00
2018-11-25T01:27:39.625Z,0.00
2018-11-25T01:28:39.647Z,0.00
2018-11-25T01:29:39.676Z,0.00
2018-11-25T01:30:39.693Z,0.00
2018-11-25T01:31:39.718Z,0.00
2018-11-25T01:32:39.740Z,0.00
2018-11-25T01:33:39.765Z,0.00
2018-11-25T01:34:39.791Z,0.00
2018-11-25T01:35:39.813Z,0.00
2018-11-25T01:36:39.836Z,0.00
2018-11-25T01:37:39.865Z,0.00
2018-11-25T01:38:39.881Z,0.00
2018-11-25T01:39:39.905Z,0.00
2018-11-25T01:40:39.935Z,0.00
2018-11-25T01:41:39.952Z,0.00
2018-11-25T01:42:39.977Z,0.00
2018-11-25T01:43:40.004Z,0.00
2018-11-25T01:44:40.024Z,0.00
2018-11-25T01:45:40.046Z,0.00
2018-11-25T01:46:40.071Z,0.00
2018-11-25T01:47:40.097Z,0.00
2018-11-25T01:48:40.120Z,0.00
2018-11-25T01:49:40.144Z,0.00
2018-11-25T01:50:40.165Z,0.00
2018-11-25T01:51:40.191Z,0.00
2018-11-25T01:52:40.215Z,0.00
2018-11-25T01:53:40.273Z,0.00
2018-11-25T01:54:40.260Z,0.00
2018-11-25T01:55:40.286Z,0.00
2018-11-25T01:56:40.307Z,0.00
2018-11-25T01:57:40.330Z,0.00
2018-11-25T01:58:40.355Z,0.00
2018-11-25T01:59:40.378Z,0.00
2018-11-25T02:00:40.411Z,0.00
2018-11-25T02:01:40.427Z,0.00
2018-11-25T02:02:40.451Z,0.00
2018-11-25T02:03:40.483Z,0.00
2018-11-25T02:04:40.498Z,0.00
2018-11-25T02:05:40.525Z,0.00
2018-11-25T02:06:40.546Z,0.00
2018-11-25T02:07:40.572Z,0.00
2018-11-25T02:08:40.590Z,0.00
2018-11-25T02:09:40.614Z,0.00
2018-11-25T02:10:40.638Z,0.00
2018-11-25T02:11:40.665Z,0.00
2018-11-25T02:12:40.687Z,0.00
2018-11-25T02:13:40.708Z,0.00
2018-11-25T02:14:40.732Z,0.00
2018-11-25T02:15:40.757Z,0.00
2018-11-25T02:16:40.779Z,0.00
2018-11-25T02:17:40.803Z,0.00
2018-11-25T02:18:40.828Z,0.00
2018-11-25T02:19:40.850Z,0.00
2018-11-25T02:20:40.873Z,0.00
2018-11-25T02:21:40.901Z,0.00
2018-11-25T02:22:40.921Z,0.00
2018-11-25T02:23:40.947Z,0.00
2018-11-25T02:24:40.969Z,0.00
2018-11-25T02:25:40.992Z,0.00
2018-11-25T02:26:41.015Z,0.00
2018-11-25T02:27:41.045Z,0.00
2018-11-25T02:28:41.062Z,0.00
2018-11-25T02:29:41.089Z,0.00
2018-11-25T02:30:41.110Z,0.00
2018-11-25T02:31:41.133Z,0.00
2018-11-25T02:32:41.161Z,0.00
2018-11-25T02:33:41.182Z,0.00
2018-11-25T02:34:41.204Z,0.00
2018-11-25T02:35:41.226Z,0.00
2018-11-25T02:36:41.250Z,0.00
2018-11-25T02:37:41.275Z,0.00
2018-11-25T02:38:41.297Z,0.00
2018-11-25T02:39:41.324Z,0.00
2018-11-25T02:40:41.342Z,0.00
2018-11-25T02:41:41.367Z,0.00
2018-11-25T02:42:41.392Z,0.00
2018-11-25T02:43:41.414Z,0.00
2018-11-25T02:44:41.436Z,0.00
2018-11-25T02:45:41.460Z,0.00
2018-11-25T02:46:41.484Z,0.00
2018-11-25T02:47:41.513Z,0.00
2018-11-25T02:48:41.540Z,0.00
2018-11-25T02:49:41.555Z,0.00
2018-11-25T02:50:41.578Z,0.00
2018-11-25T02:51:41.602Z,0.00
2018-11-25T02:52:41.626Z,0.00
2018-11-25T02:53:41.651Z,0.00
2018-11-25T02:54:41.670Z,0.00
2018-11-25T02:55:41.697Z,0.00
2018-11-25T02:56:41.718Z,0.00
2018-11-25T02:57:41.741Z,0.00
2018-11-25T02:58:41.768Z,0.00
2018-11-25T02:59:41.789Z,0.00
2018-11-25T03:00:41.816Z,0.00
2018-11-25T03:01:41.836Z,0.00
2018-11-25T03:02:41.866Z,0.00
2018-11-25T03:03:41.890Z,0.00
2018-11-25T03:04:41.909Z,0.00
2018-11-25T03:05:41.929Z,0.00
2018-11-25T03:06:41.953Z,0.00
2018-11-25T03:07:41.977Z,0.00
2018-11-25T03:08:42.000Z,0.00
2018-11-25T03:09:42.026Z,0.00
2018-11-25T03:10:42.049Z,0.00
2018-11-25T03:11:42.073Z,0.00
2018-11-25T03:12:42.096Z,0.00
2018-11-25T03:13:42.119Z,0.00
2018-11-25T03:14:42.144Z,0.00
2018-11-25T03:15:42.167Z,0.00
2018-11-25T03:16:42.190Z,0.00
2018-11-25T03:17:42.214Z,0.00
2018-11-25T03:18:42.237Z,0.00
2018-11-25T03:19:42.270Z,0.00
2018-11-25T03:20:42.288Z,0.00
2018-11-25T03:21:42.314Z,0.00
2018-11-25T03:22:42.334Z,0.00
2018-11-25T03:23:42.359Z,0.00
2018-11-25T03:24:42.384Z,0.00
2018-11-25T03:25:42.404Z,0.00
2018-11-25T03:26:42.431Z,0.00
2018-11-25T03:27:42.456Z,0.00
2018-11-25T03:28:42.481Z,0.00
2018-11-25T03:29:42.502Z,0.00
2018-11-25T03:30:42.525Z,0.00
2018-11-25T03:31:42.549Z,0.00
2018-11-25T03:32:42.571Z,0.00
2018-11-25T03:33:42.608Z,0.00
2018-11-25T03:34:42.621Z,0.00
2018-11-25T03:35:42.645Z,0.00
2018-11-25T03:36:42.668Z,0.00
2018-11-25T03:37:42.692Z,0.00
2018-11-25T03:38:42.715Z,0.00
2018-11-25T03:39:42.739Z,0.00
2018-11-25T03:40:42.765Z,0.00
2018-11-25T03:41:42.797Z,0.00
2018-11-25T03:42:42.811Z,0.00
2018-11-25T03:43:42.834Z,0.00
2018-11-25T03:44:42.869Z,0.00
2018-11-25T03:45:42.885Z,0.00
2018-11-25T03:46:42.909Z,0.00
2018-11-25T03:47:42.937Z,0.00
2018-11-25T03:48:42.953Z,0.00
2018-11-25T03:49:42.977Z,0.00
2018-11-25T03:50:43.005Z,0.00
2018-11-25T03:51:43.026Z,0.00
2018-11-25T03:52:43.051Z,0.00
2018-11-25T03:53:43.072Z,0.00
2018-11-25T03:54:43.098Z,0.00
2018-11-25T03:55:43.121Z,0.00
2018-11-25T03:56:43.142Z,0.00
2018-11-25T03:57:43.170Z,0.00
2018-11-25T03:58:43.203Z,0.00
2018-11-25T03:59:43.219Z,0.00
2018-11-25T04:00:43.240Z,0.00
2018-11-25T04:01:43.263Z,0.00
2018-11-25T04:02:43.290Z,0.00
2018-11-25T04:03:43.312Z,0.00
2018-11-25T04:04:43.338Z,0.00
2018-11-25T04:05:43.359Z,0.00
2018-11-25T04:06:43.383Z,0.00
2018-11-25T04:07:43.413Z,0.00
2018-11-25T04:08:43.433Z,0.00
2018-11-25T04:09:43.454Z,0.00
2018-11-25T04:10:43.476Z,0.00
2018-11-25T04:11:43.502Z,0.00
2018-11-25T04:12:43.525Z,0.00
2018-11-25T04:13:43.554Z,0.00
2018-11-25T04:14:43.576Z,0.00
2018-11-25T04:15:43.597Z,0.00
2018-11-25T04:16:43.623Z,0.00
2018-11-25T04:17:43.650Z,0.00
2018-11-25T04:18:43.668Z,0.00
2018-11-25T04:19:43.691Z,0.00
2018-11-25T04:20:43.719Z,0.00
2018-11-25T04:21:43.740Z,0.00
2018-11-25T04:22:43.765Z,0.00
2018-11-25T04:23:43.795Z,0.00
2018-11-25T04:24:43.813Z,0.00
2018-11-25T04:25:43.835Z,0.00
2018-11-25T04:26:43.860Z,0.00
2018-11-25T04:27:43.885Z,0.00
2018-11-25T04:28:43.909Z,0.00
2018-11-25T04:29:43.934Z,0.00
2018-11-25T04:30:43.954Z,0.00
2018-11-25T04:31:43.979Z,0.00
2018-11-25T04:32:44.006Z,0.00
2018-11-25T04:33:44.026Z,0.00
2018-11-25T04:34:44.049Z,0.00
2018-11-25T04:35:44.074Z,0.00
2018-11-25T04:36:44.100Z,0.00
2018-11-25T04:37:44.119Z,0.00
2018-11-25T04:38:44.143Z,0.00
2018-11-25T04:39:44.168Z,0.00
2018-11-25T04:40:44.193Z,0.00
2018-11-25T04:41:44.215Z,0.00
2018-11-25T04:42:44.243Z,0.00
2018-11-25T04:43:44.268Z,0.00
2018-11-25T04:44:44.286Z,0.00
2018-11-25T04:45:44.311Z,0.00
2018-11-25T04:46:44.341Z,0.00
2018-11-25T04:47:44.358Z,0.00
2018-11-25T04:48:44.388Z,0.00
2018-11-25T04:49:44.408Z,0.00
2018-11-25T04:50:44.431Z,0.00
2018-11-25T04:51:44.457Z,0.00
2018-11-25T04:52:44.479Z,0.00
2018-11-25T04:53:44.501Z,0.00
2018-11-25T04:54:44.529Z,0.00
2018-11-25T04:55:44.551Z,0.00
2018-11-25T04:56:44.568Z,0.00
2018-11-25T04:57:44.592Z,0.00
2018-11-25T04:58:44.622Z,0.00
2018-11-25T04:59:44.641Z,0.00
2018-11-25T05:00:44.664Z,0.00
2018-11-25T05:01:44.687Z,0.00
2018-11-25T05:02:44.712Z,0.00
2018-11-25T05:03:44.733Z,0.00
2018-11-25T05:04:44.759Z,0.00
2018-11-25T05:05:44.785Z,0.00
2018-11-25T05:06:44.812Z,0.00
2018-11-25T05:07:44.829Z,0.00
2018-11-25T05:08:44.850Z,0.00
2018-11-25T05:09:44.874Z,0.00
2018-11-25T05:10:44.897Z,0.00
2018-11-25T05:11:44.920Z,0.00
2018-11-25T05:12:44.947Z,0.00
2018-11-25T05:13:44.966Z,0.00
2018-11-25T05:14:44.991Z,0.00
2018-11-25T05:15:45.015Z,0.00
2018-11-25T05:16:45.099Z,0.00
2018-11-25T05:17:45.062Z,0.00
2018-11-25T05:18:45.085Z,0.00
2018-11-25T05:19:45.108Z,0.00
2018-11-25T05:20:45.129Z,0.00
2018-11-25T05:21:45.154Z,0.00
2018-11-25T05:22:45.176Z,0.00
2018-11-25T05:23:45.201Z,0.00
2018-11-25T05:24:45.223Z,0.00
2018-11-25T05:25:45.250Z,0.00
2018-11-25T05:26:45.273Z,0.00
2018-11-25T05:27:45.294Z,0.00
2018-11-25T05:28:45.317Z,0.00
2018-11-25T05:29:45.363Z,0.00
2018-11-25T05:30:45.364Z,0.00
2018-11-25T05:31:45.386Z,0.00
2018-11-25T05:32:45.407Z,0.00
2018-11-25T05:33:45.433Z,0.00
2018-11-25T05:34:45.456Z,0.00
2018-11-25T05:35:45.481Z,0.00
2018-11-25T05:36:45.506Z,0.00
2018-11-25T05:37:45.525Z,0.00
2018-11-25T05:38:45.549Z,0.00
2018-11-25T05:39:45.572Z,0.00
2018-11-25T05:40:45.598Z,0.00
2018-11-25T05:41:45.618Z,0.00
2018-11-25T05:42:45.652Z,4.00
2018-11-25T05:43:45.666Z,4.00
2018-11-25T05:44:45.689Z,0.00
2018-11-25T05:45:45.718Z,0.00
2018-11-25T05:46:45.734Z,4.00
2018-11-25T05:47:45.758Z,4.00
2018-11-25T05:48:45.779Z,4.00
2018-11-25T05:49:45.804Z,4.00
2018-11-25T05:50:45.833Z,4.00
2018-11-25T05:51:45.851Z,8.00
2018-11-25T05:52:45.873Z,8.00
2018-11-25T05:53:45.896Z,4.00
2018-11-25T05:54:45.918Z,8.00
2018-11-25T05:55:45.951Z,8.00
2018-11-25T05:56:45.968Z,12.00
2018-11-25T05:57:45.990Z,8.00
2018-11-25T05:58:46.014Z,8.00
2018-11-25T05:59:46.035Z,12.00
2018-11-25T06:00:46.063Z,12.00
2018-11-25T06:01:46.082Z,12.00
2018-11-25T06:02:46.110Z,12.00
2018-11-25T06:03:46.127Z,16.00
2018-11-25T06:04:46.151Z,20.00
2018-11-25T06:05:46.173Z,24.00
2018-11-25T06:06:46.201Z,24.00
2018-11-25T06:07:46.223Z,28.00
2018-11-25T06:08:46.243Z,32.00
2018-11-25T06:09:46.273Z,36.00
2018-11-25T06:10:46.290Z,44.00
2018-11-25T06:11:46.313Z,56.00
2018-11-25T06:12:46.337Z,60.00
2018-11-25T06:13:46.358Z,76.00
2018-11-25T06:14:46.381Z,84.00
2018-11-25T06:15:46.405Z,96.00
2018-11-25T06:16:46.429Z,116.00
2018-11-25T06:17:46.451Z,132.00
2018-11-25T06:18:46.477Z,148.00
2018-11-25T06:19:46.500Z,168.00
2018-11-25T06:20:46.521Z,192.00
2018-11-25T06:21:46.544Z,216.00
2018-11-25T06:22:46.570Z,244.00
2018-11-25T06:23:46.591Z,264.00
2018-11-25T06:24:46.612Z,288.00
2018-11-25T06:25:46.638Z,308.00
2018-11-25T06:26:46.659Z,332.00
2018-11-25T06:27:46.685Z,356.00
2018-11-25T06:28:46.705Z,384.00
2018-11-25T06:29:46.728Z,412.00
2018-11-25T06:30:46.752Z,436.00
2018-11-25T06:31:46.777Z,468.00
2018-11-25T06:32:46.797Z,500.00
2018-11-25T06:33:46.820Z,528.00
2018-11-25T06:34:46.848Z,560.00
2018-11-25T06:35:46.868Z,600.00
2018-11-25T06:36:46.891Z,640.00
2018-11-25T06:37:46.912Z,680.00
2018-11-25T06:38:46.936Z,708.00
2018-11-25T06:39:46.961Z,732.00
2018-11-25T06:40:46.981Z,764.00
2018-11-25T06:41:47.007Z,800.00
2018-11-25T06:42:47.094Z,836.00
2018-11-25T06:43:47.049Z,868.00
2018-11-25T06:44:47.073Z,904.00
2018-11-25T06:45:47.095Z,936.00
2018-11-25T06:46:47.119Z,976.00
2018-11-25T06:47:47.145Z,1008.00
2018-11-25T06:48:54.555Z,1052.00
2018-11-25T06:49:47.186Z,1092.00
2018-11-25T06:50:47.213Z,1132.00
2018-11-25T06:51:47.232Z,1176.00
2018-11-25T06:52:47.256Z,1216.00
2018-11-25T06:53:47.279Z,1256.00
2018-11-25T06:54:47.300Z,1296.00
2018-11-25T06:55:47.326Z,1336.00
2018-11-25T06:56:47.345Z,1380.00
2018-11-25T06:57:47.370Z,1424.00
2018-11-25T06:58:47.393Z,1464.00
2018-11-25T06:59:47.413Z,1508.00
2018-11-25T07:00:47.435Z,1548.00
2018-11-25T07:01:47.461Z,1588.00
2018-11-25T07:02:47.484Z,1624.00
2018-11-25T07:03:47.503Z,1660.00
2018-11-25T07:04:47.527Z,1700.00
2018-11-25T07:05:47.550Z,1736.00
2018-11-25T07:06:47.576Z,1772.00
2018-11-25T07:07:47.600Z,1812.00
2018-11-25T07:08:47.616Z,1848.00
2018-11-25T07:09:47.640Z,1884.00
2018-11-25T07:10:47.664Z,1924.00
2018-11-25T07:11:47.688Z,1960.00
2018-11-25T07:12:47.706Z,1996.00
2018-11-25T07:13:47.733Z,2032.00
2018-11-25T07:14:47.756Z,2068.00
2018-11-25T07:15:47.777Z,2100.00
2018-11-25T07:16:47.799Z,2136.00
2018-11-25T07:17:47.821Z,2168.00
2018-11-25T07:18:47.842Z,2200.00
2018-11-25T07:19:47.867Z,2240.00
2018-11-25T07:20:47.891Z,2272.00
2018-11-25T07:21:47.913Z,2308.00
2018-11-25T07:22:47.932Z,2340.00
2018-11-25T07:23:47.962Z,2372.00
2018-11-25T07:24:47.978Z,2400.00
2018-11-25T07:25:48.000Z,2424.00
2018-11-25T07:26:48.023Z,2456.00
2018-11-25T07:27:48.050Z,2496.00
2018-11-25T07:28:48.069Z,2524.00
2018-11-25T07:29:48.096Z,2552.00
2018-11-25T07:30:48.115Z,2584.00
2018-11-25T07:31:48.135Z,2620.00
2018-11-25T07:32:48.160Z,2656.00
2018-11-25T07:33:48.181Z,2692.00
2018-11-25T07:34:48.209Z,2728.00
2018-11-25T07:35:48.226Z,2764.00
2018-11-25T07:36:48.251Z,2800.00
2018-11-25T07:37:48.272Z,2828.00
2018-11-25T07:38:48.295Z,2860.00
2018-11-25T07:39:48.319Z,2892.00
2018-11-25T07:40:48.338Z,2916.00
2018-11-25T07:41:48.361Z,2944.00
2018-11-25T07:42:48.389Z,2976.00
2018-11-25T07:43:48.408Z,3008.00
2018-11-25T07:44:48.429Z,3044.00
2018-11-25T07:45:48.456Z,3088.00
2018-11-25T07:46:48.480Z,3140.00
2018-11-25T07:47:48.499Z,3204.00
2018-11-25T07:48:48.524Z,3288.00
2018-11-25T07:49:48.549Z,3396.00
2018-11-25T07:50:48.569Z,3464.00
2018-11-25T07:51:48.591Z,3460.00
2018-11-25T07:52:48.616Z,3700.00
2018-11-25T07:53:48.634Z,4160.00
2018-11-25T07:54:48.659Z,3612.00
2018-11-25T07:55:48.683Z,3484.00
2018-11-25T07:56:48.705Z,3352.00
2018-11-25T07:57:48.727Z,3304.00
2018-11-25T07:58:48.751Z,3264.00
2018-11-25T07:59:48.775Z,3240.00
2018-11-25T08:00:48.799Z,3252.00
2018-11-25T08:01:48.821Z,3284.00
2018-11-25T08:02:48.845Z,3324.00
2018-11-25T08:03:48.866Z,3356.00
2018-11-25T08:04:48.893Z,3416.00
2018-11-25T08:05:48.914Z,3464.00
2018-11-25T08:06:48.935Z,3516.00
2018-11-25T08:07:48.961Z,3592.00
2018-11-25T08:08:48.982Z,3672.00
2018-11-25T08:09:49.003Z,3704.00
2018-11-25T08:10:49.026Z,3744.00
2018-11-25T08:11:49.050Z,3788.00
2018-11-25T08:12:49.079Z,3852.00
2018-11-25T08:13:49.094Z,3940.00
2018-11-25T08:14:49.120Z,4052.00
2018-11-25T08:15:49.143Z,4096.00
2018-11-25T08:16:49.164Z,4192.00
2018-11-25T08:17:49.192Z,4500.00
2018-11-25T08:18:49.212Z,7264.00
2018-11-25T08:19:49.242Z,10884.00
2018-11-25T08:20:49.258Z,11536.00
2018-11-25T08:21:49.281Z,11020.00
2018-11-25T08:22:49.305Z,12256.00
2018-11-25T08:23:49.332Z,12384.00
2018-11-25T08:24:49.353Z,10196.00
2018-11-25T08:25:49.377Z,8092.00
2018-11-25T08:26:49.408Z,8004.00
2018-11-25T08:27:49.427Z,5132.00
2018-11-25T08:28:49.453Z,4728.00
2018-11-25T08:29:49.478Z,4480.00
2018-11-25T08:30:49.500Z,4348.00
2018-11-25T08:31:49.526Z,4292.00
2018-11-25T08:32:49.554Z,4272.00
2018-11-25T08:33:49.581Z,4264.00
2018-11-25T08:34:49.610Z,4276.00
2018-11-25T08:35:49.625Z,4332.00
2018-11-25T08:36:49.648Z,5660.00
2018-11-25T08:37:49.675Z,4468.00
2018-11-25T08:38:49.700Z,4500.00
2018-11-25T08:39:49.723Z,4544.00
2018-11-25T08:40:49.748Z,4600.00
2018-11-25T08:41:49.771Z,4768.00
2018-11-25T08:42:49.796Z,5128.00
2018-11-25T08:43:49.826Z,7816.00
2018-11-25T08:44:49.845Z,9672.00
2018-11-25T08:45:49.870Z,5896.00
2018-11-25T08:46:49.895Z,5256.00
2018-11-25T08:47:49.931Z,5108.00
2018-11-25T08:48:49.943Z,5164.00
2018-11-25T08:49:49.970Z,5352.00
2018-11-25T08:50:49.995Z,5468.00
2018-11-25T08:51:50.020Z,5360.00
2018-11-25T08:52:50.043Z,5156.00
2018-11-25T08:53:50.066Z,5024.00
2018-11-25T08:54:50.091Z,4924.00
2018-11-25T08:55:50.115Z,4836.00
2018-11-25T08:56:50.137Z,4756.00
2018-11-25T08:57:50.165Z,4652.00
2018-11-25T08:58:50.191Z,4564.00
2018-11-25T08:59:50.215Z,4564.00
2018-11-25T09:00:50.236Z,4696.00
2018-11-25T09:01:50.259Z,4988.00
2018-11-25T09:02:50.283Z,5696.00
2018-11-25T09:03:50.309Z,7712.00
2018-11-25T09:04:50.333Z,8688.00
2018-11-25T09:05:50.357Z,7896.00
2018-11-25T09:06:50.381Z,8056.00
2018-11-25T09:07:50.413Z,8984.00
2018-11-25T09:08:50.430Z,7964.00
2018-11-25T09:09:50.480Z,9428.00
2018-11-25T09:10:50.487Z,8092.00
2018-11-25T09:11:50.508Z,6936.00
2018-11-25T09:12:56.022Z,7560.00
2018-11-25T09:13:50.551Z,9064.00
2018-11-25T09:14:50.580Z,9140.00
2018-11-25T09:15:50.602Z,10040.00
2018-11-25T09:16:50.626Z,9780.00
2018-11-25T09:17:50.651Z,11180.00
2018-11-25T09:18:50.674Z,11240.00
2018-11-25T09:19:50.705Z,16160.00
2018-11-25T09:20:50.729Z,17344.00
2018-11-25T09:21:50.751Z,18176.00
2018-11-25T09:22:50.778Z,18944.00
2018-11-25T09:23:50.805Z,19456.00
2018-11-25T09:24:50.832Z,19424.00
2018-11-25T09:25:50.857Z,19904.00
2018-11-25T09:26:50.880Z,19808.00
2018-11-25T09:27:50.908Z,19424.00
2018-11-25T09:28:52.199Z,19680.00
2018-11-25T09:29:50.965Z,14880.00
2018-11-25T09:30:50.990Z,8760.00
2018-11-25T09:31:51.018Z,6388.00
2018-11-25T09:32:51.045Z,15136.00
2018-11-25T09:33:51.072Z,4828.00
2018-11-25T09:34:51.100Z,4764.00
2018-11-25T09:35:51.134Z,7904.00
2018-11-25T09:36:51.158Z,17568.00
2018-11-25T09:37:51.187Z,11864.00
2018-11-25T09:38:51.210Z,11176.00
2018-11-25T09:39:51.243Z,9868.00
2018-11-25T09:40:51.264Z,12704.00
2018-11-25T09:41:51.298Z,19136.00
2018-11-25T09:42:51.322Z,19680.00
2018-11-25T09:43:51.349Z,19296.00
2018-11-25T09:44:51.375Z,19872.00
2018-11-25T09:45:51.402Z,20096.00
2018-11-25T09:46:51.431Z,19904.00
2018-11-25T09:47:51.465Z,8416.00
2018-11-25T09:48:51.488Z,6564.00
2018-11-25T09:49:51.522Z,11124.00
2018-11-25T09:50:51.548Z,12776.00
2018-11-25T09:51:51.577Z,18496.00
2018-11-25T09:52:51.602Z,8920.00
2018-11-25T09:53:51.635Z,20608.00
2018-11-25T09:54:51.659Z,20480.00
2018-11-25T09:55:51.687Z,20064.00
2018-11-25T09:56:51.714Z,20416.00
2018-11-25T09:57:51.741Z,20640.00
2018-11-25T09:58:51.769Z,20352.00
2018-11-25T09:59:51.800Z,16800.00
2018-11-25T10:00:51.829Z,17920.00
2018-11-25T10:01:51.855Z,12708.00
2018-11-25T10:02:51.888Z,9028.00
2018-11-25T10:03:51.914Z,7832.00
2018-11-25T10:04:51.944Z,7068.00
2018-11-25T10:05:51.973Z,6964.00
2018-11-25T10:06:52.002Z,7024.00
2018-11-25T10:07:52.031Z,6988.00
2018-11-25T10:08:52.064Z,6704.00
2018-11-25T10:09:52.089Z,6672.00
2018-11-25T10:10:52.771Z,6404.00
2018-11-25T10:11:52.146Z,6848.00
2018-11-25T10:12:52.175Z,7296.00
2018-11-25T10:13:52.201Z,7892.00
2018-11-25T10:14:52.235Z,8500.00
2018-11-25T10:15:52.259Z,9208.00
2018-11-25T10:16:52.285Z,10428.00
2018-11-25T10:17:59.432Z,11296.00
2018-11-25T10:18:52.340Z,12336.00
2018-11-25T10:19:52.369Z,12688.00
2018-11-25T10:20:52.395Z,13216.00
2018-11-25T10:21:52.426Z,13308.00
2018-11-25T10:22:52.452Z,13532.00
2018-11-25T10:23:52.480Z,22240.00
2018-11-25T10:24:52.507Z,27200.00
2018-11-25T10:25:52.534Z,26336.00
2018-11-25T10:26:52.562Z,24320.00
2018-11-25T10:27:52.590Z,22272.00
2018-11-25T10:28:52.621Z,17760.00
2018-11-25T10:29:52.650Z,13196.00
2018-11-25T10:30:52.675Z,12724.00
2018-11-25T10:31:52.704Z,12924.00
2018-11-25T10:32:52.739Z,11364.00
2018-11-25T10:33:52.760Z,11772.00
2018-11-25T10:34:52.790Z,18944.00
2018-11-25T10:35:52.825Z,16192.00
2018-11-25T10:36:52.847Z,23264.00
2018-11-25T10:37:52.880Z,22752.00
2018-11-25T10:38:52.908Z,22080.00
2018-11-25T10:39:52.937Z,22464.00
2018-11-25T10:40:52.965Z,21024.00
2018-11-25T10:41:52.993Z,21472.00
2018-11-25T10:42:53.025Z,21440.00
2018-11-25T10:43:53.054Z,21696.00
2018-11-25T10:44:53.082Z,21984.00
2018-11-25T10:45:53.118Z,19488.00
2018-11-25T10:46:53.144Z,13320.00
2018-11-25T10:47:53.172Z,10796.00
2018-11-25T10:48:53.200Z,8648.00
2018-11-25T10:49:53.232Z,7516.00
2018-11-25T10:50:53.261Z,7136.00
2018-11-25T10:51:53.289Z,7156.00
2018-11-25T10:52:53.321Z,6808.00
2018-11-25T10:53:53.346Z,6756.00
2018-11-25T10:54:53.375Z,6832.00
2018-11-25T10:55:53.405Z,7160.00
2018-11-25T10:56:53.435Z,7600.00
2018-11-25T10:57:53.463Z,8620.00
2018-11-25T10:58:53.492Z,10084.00
2018-11-25T10:59:53.518Z,11684.00
2018-11-25T11:00:53.546Z,11316.00
2018-11-25T11:01:53.573Z,10768.00
2018-11-25T11:02:53.604Z,10704.00
2018-11-25T11:03:53.628Z,9604.00
2018-11-25T11:04:53.659Z,10128.00
2018-11-25T11:05:53.685Z,9828.00
2018-11-25T11:06:53.714Z,10264.00
2018-11-25T11:07:53.744Z,12428.00
2018-11-25T11:08:53.770Z,12856.00
2018-11-25T11:09:53.801Z,12140.00
2018-11-25T11:10:53.826Z,11448.00
2018-11-25T11:11:53.856Z,10976.00
2018-11-25T11:12:53.883Z,10256.00
2018-11-25T11:13:53.910Z,9748.00
2018-11-25T11:14:53.942Z,9348.00
2018-11-25T11:15:53.966Z,9004.00
2018-11-25T11:16:54.146Z,8856.00
2018-11-25T11:17:54.024Z,8728.00
2018-11-25T11:18:54.056Z,8540.00
2018-11-25T11:19:54.080Z,7992.00
2018-11-25T11:20:54.113Z,6844.00
2018-11-25T11:21:54.138Z,5952.00
2018-11-25T11:22:54.171Z,5760.00
2018-11-25T11:23:54.199Z,5748.00
2018-11-25T11:24:54.224Z,5732.00
2018-11-25T11:25:54.253Z,5648.00
2018-11-25T11:26:54.284Z,5612.00
2018-11-25T11:27:54.309Z,5620.00
2018-11-25T11:28:54.336Z,5596.00
2018-11-25T11:29:54.364Z,5548.00
2018-11-25T11:30:54.395Z,5568.00
2018-11-25T11:31:54.423Z,5760.00
2018-11-25T11:32:54.446Z,6184.00
2018-11-25T11:33:54.474Z,6764.00
2018-11-25T11:34:54.504Z,7464.00
2018-11-25T11:35:54.532Z,8316.00
2018-11-25T11:36:54.557Z,9016.00
2018-11-25T11:37:54.588Z,9368.00
2018-11-25T11:38:54.608Z,9744.00
2018-11-25T11:39:54.635Z,10092.00
2018-11-25T11:40:54.715Z,10704.00
2018-11-25T11:41:54.687Z,11204.00
2018-11-25T11:42:54.716Z,11492.00
2018-11-25T11:43:54.743Z,11012.00
2018-11-25T11:44:54.771Z,10548.00
2018-11-25T11:45:54.796Z,10016.00
2018-11-25T11:46:54.829Z,9052.00
2018-11-25T11:47:54.849Z,8228.00
2018-11-25T11:48:54.876Z,7516.00
2018-11-25T11:49:54.900Z,7096.00
2018-11-25T11:50:54.928Z,6896.00
2018-11-25T11:51:54.958Z,6824.00
2018-11-25T11:52:54.979Z,6752.00
2018-11-25T11:53:55.006Z,6768.00
2018-11-25T11:54:55.033Z,6752.00
2018-11-25T11:55:55.062Z,6636.00
2018-11-25T11:56:55.087Z,6548.00
2018-11-25T11:57:55.112Z,6268.00
2018-11-25T11:58:55.139Z,5892.00
2018-11-25T11:59:55.165Z,5256.00
2018-11-25T12:00:55.191Z,5064.00
2018-11-25T12:01:55.219Z,4928.00
2018-11-25T12:02:55.246Z,4972.00
2018-11-25T12:03:55.272Z,5156.00
2018-11-25T12:04:55.297Z,5328.00
2018-11-25T12:05:55.322Z,5660.00
2018-11-25T12:06:55.348Z,6012.00
2018-11-25T12:07:55.375Z,5872.00
2018-11-25T12:08:55.403Z,5932.00
2018-11-25T12:09:55.429Z,5892.00
2018-11-25T12:10:55.453Z,5788.00
2018-11-25T12:11:55.479Z,5640.00
2018-11-25T12:12:55.505Z,5568.00
2018-11-25T12:13:55.532Z,5464.00
2018-11-25T12:14:55.563Z,5376.00
2018-11-25T12:15:55.584Z,5156.00
2018-11-25T12:16:55.608Z,4948.00
2018-11-25T12:17:55.634Z,4804.00
2018-11-25T12:18:55.662Z,4820.00
2018-11-25T12:19:55.687Z,4780.00
2018-11-25T12:20:55.712Z,4576.00
2018-11-25T12:21:58.340Z,4308.00
2018-11-25T12:22:55.764Z,4136.00
2018-11-25T12:23:55.794Z,4040.00
2018-11-25T12:24:55.815Z,3944.00
2018-11-25T12:25:55.846Z,3896.00
2018-11-25T12:26:55.879Z,3876.00
2018-11-25T12:27:55.897Z,3848.00
2018-11-25T12:28:55.919Z,3884.00
2018-11-25T12:29:55.947Z,3948.00
2018-11-25T12:30:55.971Z,4092.00
2018-11-25T12:31:56.000Z,4084.00
2018-11-25T12:32:56.020Z,3972.00
2018-11-25T12:33:56.046Z,3864.00
2018-11-25T12:34:56.072Z,3940.00
2018-11-25T12:35:56.098Z,4080.00
2018-11-25T12:36:56.123Z,4224.00
2018-11-25T12:37:56.156Z,4200.00